Time;durP1;ratioP1;P1;durP2;ratioP2;P2;SDS_P1;SDS_P2;PMS_P1;PMS_P2;Temp;Humidity;BMP_temperature;BMP_pressure;BME280_temperature;BME280_humidity;BME280_pressure;Samples;Min_cycle;Max_cycle;Signal;HPM_P1;HPM_P2
2024/01/25 07:02:36;;;;;;;30.05;6.35;;;;;;;9.20;70.84;101958.00;5173929;23;20479;-64
2024/01/25 07:05:10;;;;;;;30.07;10.03;;;;;;;9.20;70.74;101958.00;4942463;28;20218;-64
2024/01/25 07:07:39;;;;;;;31.20;5.97;;;;;;;9.17;70.48;101950.28;4943128;28;20263;-64
2024/01/25 07:10:09;;;;;;;21.07;4.57;;;;;;;9.15;70.35;101948.69;4945677;28;20282;-63
2024/01/25 07:12:37;;;;;;;22.73;4.50;;;;;;;9.11;70.49;101948.03;4942243;28;21283;-63
2024/01/25 07:15:06;;;;;;;28.43;4.10;;;;;;;9.03;70.61;101951.22;4945083;28;20741;-63
2024/01/25 07:17:36;;;;;;;29.17;4.73;;;;;;;9.05;70.71;101966.97;4941786;28;20216;-64
2024/01/25 07:20:06;;;;;;;24.13;4.53;;;;;;;9.06;70.60;101973.94;4944415;28;20326;-63
2024/01/25 07:22:34;;;;;;;28.47;5.90;;;;;;;9.12;70.21;101973.56;4946147;28;20219;-63
2024/01/25 07:25:03;;;;;;;23.33;3.73;;;;;;;9.14;70.21;101979.59;4922289;29;20224;-63
2024/01/25 07:27:32;;;;;;;26.33;4.03;;;;;;;9.11;70.16;101979.81;4901046;23;20245;-63
2024/01/25 07:30:01;;;;;;;27.37;5.00;;;;;;;9.06;70.17;101966.84;4896749;29;20215;-64
2024/01/25 07:32:32;;;;;;;24.53;4.83;;;;;;;9.09;70.40;101980.84;4897119;29;20215;-64
2024/01/25 07:35:02;;;;;;;23.60;5.70;;;;;;;9.10;70.49;101990.47;4895635;29;20244;-64
2024/01/25 07:37:31;;;;;;;26.83;4.77;;;;;;;9.06;70.57;101987.19;4899573;29;20223;-64
2024/01/25 07:40:00;;;;;;;30.87;3.97;;;;;;;9.05;70.77;101985.50;4898784;29;22206;-66
2024/01/25 07:42:29;;;;;;;36.23;5.37;;;;;;;9.07;70.58;101978.28;4900830;29;20217;-62
2024/01/25 07:44:57;;;;;;;26.80;5.23;;;;;;;9.08;70.51;101980.00;4896964;29;20229;-64
2024/01/25 07:47:26;;;;;;;34.67;5.17;;;;;;;9.10;70.44;101982.53;4899836;29;20584;-63
2024/01/25 07:49:55;;;;;;;23.80;4.70;;;;;;;9.14;70.35;101995.50;4902756;29;20211;-63
2024/01/25 07:52:25;;;;;;;23.30;4.13;;;;;;;9.15;70.18;101991.88;4899591;29;21580;-64
2024/01/25 07:54:54;;;;;;;25.17;4.07;;;;;;;9.15;70.10;101983.09;4898708;29;20307;-63
2024/01/25 07:57:23;;;;;;;25.63;4.27;;;;;;;9.18;70.22;101980.22;4899319;29;20227;-64
2024/01/25 07:59:51;;;;;;;22.63;5.03;;;;;;;9.19;70.06;101982.78;4897369;29;20216;-64
2024/01/25 08:02:20;;;;;;;34.70;5.80;;;;;;;9.21;70.11;101985.34;4898212;29;20587;-64
2024/01/25 08:04:49;;;;;;;32.97;6.27;;;;;;;9.21;70.25;101983.53;4899000;29;20220;-63
2024/01/25 08:07:17;;;;;;;30.50;5.50;;;;;;;9.23;70.30;101989.59;4901810;29;20247;-64
2024/01/25 08:09:50;;;;;;;26.53;5.43;;;;;;;9.26;70.29;101996.44;4899741;29;20205;-64
2024/01/25 08:12:19;;;;;;;23.40;5.13;;;;;;;9.29;70.15;102005.03;4897466;29;20225;-63
2024/01/25 08:14:47;;;;;;;30.07;5.70;;;;;;;9.26;70.11;102005.25;4898967;29;20786;-64
2024/01/25 08:17:16;;;;;;;25.13;5.17;;;;;;;9.29;70.28;102007.69;4898769;29;20560;-63
2024/01/25 08:19:44;;;;;;;31.40;7.10;;;;;;;9.32;70.23;102007.47;4898111;29;20219;-63
2024/01/25 08:22:14;;;;;;;30.30;7.13;;;;;;;9.37;70.28;102012.47;4899088;29;20216;-64
2024/01/25 08:24:43;;;;;;;38.20;5.67;;;;;;;9.47;70.17;102023.28;4899893;29;20280;-65
2024/01/25 08:27:13;;;;;;;27.90;5.37;;;;;;;9.55;69.95;102020.97;4900883;29;20257;-64
2024/01/25 08:29:42;;;;;;;22.13;5.20;;;;;;;9.61;69.84;102015.25;4902046;29;20216;-63
2024/01/25 08:32:11;;;;;;;30.10;5.00;;;;;;;9.69;69.91;102007.63;4902966;29;20209;-64
2024/01/25 08:34:39;;;;;;;24.67;5.83;;;;;;;9.74;69.93;102006.38;4902149;29;20308;-63
2024/01/25 08:37:09;;;;;;;25.53;5.40;;;;;;;9.78;70.00;102004.34;4902474;29;20219;-64
2024/01/25 08:39:38;;;;;;;25.03;5.40;;;;;;;9.86;69.94;102002.00;4901691;29;20241;-64
2024/01/25 08:42:07;;;;;;;29.40;5.73;;;;;;;9.95;69.90;102009.31;4902510;29;20324;-64
2024/01/25 08:44:38;;;;;;;24.73;4.63;;;;;;;10.03;69.41;102006.97;4901198;29;20315;-64
2024/01/25 08:47:07;;;;;;;33.07;5.40;;;;;;;10.09;69.38;102009.22;4903007;29;21025;-63
2024/01/25 08:49:39;;;;;;;26.53;4.87;;;;;;;10.16;69.18;102013.13;4902620;29;20214;-64
2024/01/25 08:52:09;;;;;;;24.03;4.77;;;;;;;10.24;68.93;102014.41;4902477;29;20243;-63
2024/01/25 08:54:37;;;;;;;31.70;6.03;;;;;;;10.28;68.89;102031.81;4901301;29;20277;-63
2024/01/25 08:57:06;;;;;;;27.67;5.30;;;;;;;10.39;68.48;102026.59;4899747;29;20325;-65
2024/01/25 08:59:37;;;;;;;27.57;5.60;;;;;;;10.49;68.08;102031.13;4901182;29;20227;-63
2024/01/25 09:02:06;;;;;;;24.00;5.17;;;;;;;10.56;67.80;102031.53;4900264;29;20217;-64
2024/01/25 09:04:35;;;;;;;25.20;4.97;;;;;;;10.80;67.08;102032.44;4902645;29;20232;-63
2024/01/25 09:07:04;;;;;;;28.07;5.67;;;;;;;10.94;66.24;102023.44;4900042;29;20740;-65
2024/01/25 09:09:32;;;;;;;23.67;6.07;;;;;;;11.26;66.13;102032.50;4900210;29;20364;-64
2024/01/25 09:12:01;;;;;;;30.27;5.40;;;;;;;12.56;61.82;102033.09;4902343;29;20235;-63
2024/01/25 09:14:32;;;;;;;21.53;5.27;;;;;;;12.75;60.61;102030.66;4900009;29;20209;-63
2024/01/25 09:17:02;;;;;;;22.40;5.03;;;;;;;13.21;59.75;102029.56;4900728;29;20227;-64
2024/01/25 09:19:30;;;;;;;28.00;6.37;;;;;;;13.76;57.68;102023.09;4902047;29;20224;-63
2024/01/25 09:22:03;;;;;;;28.50;6.73;;;;;;;14.10;56.45;102021.03;4902945;29;20289;-65
2024/01/25 09:24:35;;;;;;;30.03;6.40;;;;;;;15.24;53.81;102024.97;4900326;29;20240;-64
2024/01/25 09:27:05;;;;;;;22.80;6.63;;;;;;;16.67;50.37;102026.59;4903336;29;20252;-63
2024/01/25 09:29:33;;;;;;;20.87;6.13;;;;;;;17.97;47.73;102031.25;4900777;29;20292;-64
2024/01/25 09:32:04;;;;;;;28.60;6.90;;;;;;;19.05;45.39;102020.63;4900625;29;20223;-64
2024/01/25 09:34:33;;;;;;;22.80;6.73;;;;;;;20.01;42.95;102026.16;4902270;29;20220;-64
2024/01/25 09:37:04;;;;;;;34.70;6.93;;;;;;;21.06;40.79;102030.22;4903653;29;20212;-64
2024/01/25 09:39:36;;;;;;;23.40;6.07;;;;;;;22.31;38.73;102018.78;4901957;29;20245;-64
2024/01/25 09:42:05;;;;;;;23.50;7.07;;;;;;;24.01;35.93;102026.13;4900064;29;20213;-64
2024/01/25 09:44:35;;;;;;;20.43;6.47;;;;;;;25.85;33.20;102020.38;4901669;29;20250;-65
2024/01/25 09:47:07;;;;;;;19.88;5.25;;;;;;;26.90;31.36;102016.44;4901054;29;20264;-64
2024/01/25 09:49:36;;;;;;;19.50;5.85;;;;;;;26.94;31.03;102020.41;4902395;29;20868;-66
2024/01/25 09:52:06;;;;;;;21.38;6.05;;;;;;;27.21;30.01;102021.06;4900971;29;20313;-65
2024/01/25 09:54:36;;;;;;;18.10;6.18;;;;;;;26.69;30.07;102017.59;4902271;29;20209;-65
2024/01/25 09:57:12;;;;;;;21.10;6.18;;;;;;;24.89;31.97;102009.00;4900157;29;20288;-65
2024/01/25 09:59:42;;;;;;;23.38;6.65;;;;;;;23.39;34.41;102015.22;4902605;29;20215;-65
2024/01/25 10:02:12;;;;;;;24.83;6.53;;;;;;;23.34;34.82;102015.78;4899881;29;20219;-65
2024/01/25 10:04:41;;;;;;;22.13;6.30;;;;;;;23.96;33.97;102017.75;4899860;29;20220;-65
2024/01/25 10:07:10;;;;;;;19.58;5.50;;;;;;;23.76;33.92;102017.63;4900056;29;20367;-65
2024/01/25 10:09:43;;;;;;;28.15;9.77;;;;;;;23.68;33.80;102015.06;4901055;29;21010;-64
2024/01/25 10:12:15;;;;;;;23.52;7.15;;;;;;;22.28;35.80;102010.22;4901504;29;20219;-65
2024/01/25 10:14:46;;;;;;;22.75;5.75;;;;;;;21.12;37.49;102018.72;4901570;29;20236;-65
2024/01/25 10:17:16;;;;;;;26.30;5.70;;;;;;;20.17;38.74;102009.94;4902034;29;20217;-65
2024/01/25 10:19:45;;;;;;;17.45;5.40;;;;;;;19.65;40.08;102016.78;4899274;29;20739;-66
2024/01/25 10:22:14;;;;;;;16.75;5.38;;;;;;;19.76;40.09;102019.13;4900617;29;20219;-64
2024/01/25 10:24:44;;;;;;;24.60;6.20;;;;;;;19.71;40.13;102033.09;4901542;29;20247;-64
2024/01/25 10:27:13;;;;;;;20.70;4.93;;;;;;;19.51;40.37;102029.09;4901665;29;20243;-64
2024/01/25 10:29:42;;;;;;;26.37;6.40;;;;;;;19.08;41.08;102036.44;4901839;29;21037;-65
2024/01/25 10:32:11;;;;;;;18.80;5.40;;;;;;;18.91;41.40;102032.00;4897366;29;20212;-65
2024/01/25 10:34:44;;;;;;;22.80;5.57;;;;;;;19.92;40.52;102036.09;4899540;29;20220;-65
2024/01/25 10:37:17;;;;;;;16.43;5.20;;;;;;;20.18;39.88;102041.25;4894822;29;20215;-64
2024/01/25 10:39:46;;;;;;;20.97;5.27;;;;;;;20.81;38.83;102031.41;4901922;29;20221;-64
2024/01/25 10:42:15;;;;;;;26.90;5.97;;;;;;;21.28;37.42;102036.69;4901418;29;20285;-65
2024/01/25 10:44:45;;;;;;;19.00;4.93;;;;;;;21.87;36.85;102024.16;4899332;29;20233;-67
2024/01/25 10:47:18;;;;;;;21.30;5.90;;;;;;;22.24;36.16;102017.88;4893644;29;20209;-65
2024/01/25 10:49:50;;;;;;;23.80;5.80;;;;;;;21.57;37.01;102019.72;4900921;29;20406;-66
2024/01/25 10:52:25;;;;;;;19.90;5.23;;;;;;;20.01;38.66;102011.84;4898334;29;20233;-65
2024/01/25 10:54:57;;;;;;;21.27;5.63;;;;;;;19.01;40.50;102024.66;4903161;29;20205;-64
2024/01/25 10:57:25;;;;;;;23.77;5.47;;;;;;;18.62;40.99;102019.03;4900278;29;20212;-65
2024/01/25 10:59:54;;;;;;;20.57;5.17;;;;;;;18.59;41.22;102018.50;4900098;29;20228;-65
2024/01/25 11:02:25;;;;;;;29.93;5.33;;;;;;;18.24;41.87;102017.66;4894336;29;20217;-64
2024/01/25 11:04:56;;;;;;;25.23;5.50;;;;;;;17.71;42.92;102012.47;4900642;29;20226;-66
2024/01/25 11:07:25;;;;;;;24.00;5.67;;;;;;;17.09;43.78;102016.97;4900995;29;20632;-67
2024/01/25 11:09:54;;;;;;;19.57;4.80;;;;;;;16.57;44.73;102021.25;4900448;29;20209;-64
2024/01/25 11:12:23;;;;;;;23.33;5.03;;;;;;;16.20;45.60;102021.28;4900914;29;20214;-63
2024/01/25 11:14:58;;;;;;;24.97;6.60;;;;;;;16.05;46.12;102015.56;4896635;29;20214;-64
2024/01/25 11:17:27;;;;;;;28.63;5.90;;;;;;;16.02;47.00;102015.84;4900720;29;20244;-64
2024/01/25 11:20:04;;;;;;;20.20;4.67;;;;;;;16.24;46.62;102009.31;4900164;29;20232;-64
2024/01/25 11:22:35;;;;;;;22.10;5.93;;;;;;;16.61;46.57;102006.63;4899285;29;20224;-64
2024/01/25 11:25:13;;;;;;;27.40;5.93;;;;;;;16.97;45.66;102004.81;4896881;29;20237;-66
2024/01/25 11:27:42;;;;;;;21.23;4.90;;;;;;;17.39;45.14;101994.28;4896654;29;20224;-68
2024/01/25 11:30:14;;;;;;;23.60;5.60;;;;;;;18.09;44.31;101988.91;4897626;29;20212;-66
2024/01/25 11:32:44;;;;;;;22.00;4.97;;;;;;;18.62;42.65;101991.31;4897587;29;20240;-65
2024/01/25 11:35:16;;;;;;;15.53;4.70;;;;;;;18.97;41.75;101990.22;4888465;29;20292;-65
2024/01/25 11:37:46;;;;;;;20.17;4.70;;;;;;;19.57;39.98;101982.66;4898525;29;20245;-65
2024/01/25 11:40:16;;;;;;;19.43;5.37;;;;;;;21.07;37.38;101983.38;4898494;29;20675;-65
2024/01/25 11:42:46;;;;;;;21.45;4.57;;;;;;;22.84;34.68;101968.91;4898470;29;20211;-67
2024/01/25 11:45:15;;;;;;;27.45;5.93;;;;;;;24.35;32.10;101973.81;4897122;29;20292;-65
2024/01/25 11:47:44;;;;;;;19.27;5.20;;;;;;;24.05;32.29;101959.66;4897047;29;20214;-64
2024/01/25 11:50:14;;;;;;;21.13;5.18;;;;;;;22.41;34.24;101961.75;4891163;29;20756;-65
2024/01/25 11:52:44;;;;;;;24.50;5.25;;;;;;;20.97;35.09;101969.28;4896730;29;20224;-66
2024/01/25 11:55:13;;;;;;;21.63;5.65;;;;;;;20.89;35.95;101964.78;4897649;29;20220;-66
2024/01/25 11:57:42;;;;;;;18.55;4.68;;;;;;;20.11;37.10;101954.09;4899095;29;20228;-64
2024/01/25 12:00:16;;;;;;;23.77;5.78;;;;;;;19.24;38.65;101959.47;4887099;29;20213;-66
2024/01/25 12:02:45;;;;;;;28.33;5.90;;;;;;;18.54;39.86;101957.19;4896416;29;20303;-66
2024/01/25 12:05:15;;;;;;;18.20;4.83;;;;;;;18.00;40.73;101947.75;4897089;29;20261;-65
2024/01/25 12:07:44;;;;;;;27.43;5.63;;;;;;;17.68;41.68;101951.94;4899038;29;20213;-66
2024/01/25 12:10:18;;;;;;;28.70;5.77;;;;;;;17.39;41.80;101962.13;4898427;29;20264;-65
2024/01/25 12:12:49;;;;;;;22.53;5.30;;;;;;;17.29;42.18;101953.31;4900712;29;20220;-67
2024/01/25 12:15:18;;;;;;;20.63;5.10;;;;;;;17.05;42.80;101947.78;4899757;29;20665;-68
2024/01/25 12:17:47;;;;;;;21.87;4.83;;;;;;;16.85;43.28;101937.22;4900269;29;20208;-66
2024/01/25 12:20:18;;;;;;;25.17;4.93;;;;;;;17.78;41.89;101933.03;4900563;29;20220;-67
2024/01/25 12:22:49;;;;;;;29.60;5.97;;;;;;;17.67;41.46;101915.41;4900449;29;20225;-63
2024/01/25 12:25:19;;;;;;;23.80;5.07;;;;;;;17.15;42.04;101919.03;4890901;29;20224;-66
2024/01/25 12:27:50;;;;;;;22.07;5.13;;;;;;;16.55;43.18;101916.09;4898572;29;20225;-65
2024/01/25 12:30:19;;;;;;;19.60;4.83;;;;;;;16.12;44.33;101898.91;4900409;29;20219;-65
2024/01/25 12:32:49;;;;;;;22.50;4.83;;;;;;;15.81;44.51;101886.84;4896480;29;20217;-64
2024/01/25 12:35:20;;;;;;;18.37;4.70;;;;;;;15.50;45.41;101885.38;4897238;29;20213;-66
2024/01/25 12:37:49;;;;;;;28.10;4.83;;;;;;;15.21;46.65;101883.63;4898524;29;20947;-64
2024/01/25 12:40:17;;;;;;;18.20;4.27;;;;;;;15.03;46.71;101880.88;4899227;29;20217;-63
2024/01/25 12:42:49;;;;;;;22.17;5.90;;;;;;;14.89;47.56;101889.28;4898541;29;20242;-65
2024/01/25 12:45:18;;;;;;;23.27;5.50;;;;;;;14.76;47.90;101878.06;4900983;29;20220;-66
2024/01/25 12:47:47;;;;;;;26.97;5.40;;;;;;;14.69;48.25;101875.09;4899746;29;20268;-65
2024/01/25 12:50:19;;;;;;;17.80;4.40;;;;;;;14.63;48.56;101883.69;4901752;29;20736;-64
2024/01/25 12:52:52;;;;;;;19.40;4.30;;;;;;;14.53;48.80;101879.31;4901686;29;20672;-65
2024/01/25 12:55:20;;;;;;;22.00;4.40;;;;;;;14.47;48.72;101866.53;4899701;29;20711;-64
2024/01/25 12:57:49;;;;;;;18.27;4.20;;;;;;;14.46;49.29;101860.34;4899800;29;20684;-65
2024/01/25 13:00:26;;;;;;;24.97;5.00;;;;;;;14.44;49.07;101864.97;4900294;29;20213;-68
2024/01/25 13:02:56;;;;;;;18.97;4.27;;;;;;;14.49;48.69;101861.91;4898830;29;20207;-64
2024/01/25 13:05:25;;;;;;;18.77;4.50;;;;;;;14.43;48.50;101865.97;4897813;29;20217;-64
2024/01/25 13:07:59;;;;;;;18.40;3.30;;;;;;;14.43;48.59;101863.28;4894458;29;21073;-66
2024/01/25 13:10:30;;;;;;;18.07;4.03;;;;;;;14.37;48.70;101861.16;4899236;29;20201;-65
2024/01/25 13:13:02;;;;;;;18.83;4.30;;;;;;;14.32;49.04;101860.75;4903472;29;20214;-63
2024/01/25 13:15:31;;;;;;;22.37;4.07;;;;;;;14.29;49.70;101869.84;4902160;29;20623;-64
2024/01/25 13:18:01;;;;;;;22.77;5.53;;;;;;;14.25;49.63;101854.25;4904971;29;20257;-65
2024/01/25 13:20:29;;;;;;;24.63;4.80;;;;;;;14.21;49.83;101847.53;4901466;29;20946;-63
2024/01/25 13:23:00;;;;;;;24.90;4.93;;;;;;;14.13;49.95;101834.03;4902938;29;21125;-64
2024/01/25 13:25:28;;;;;;;20.30;4.30;;;;;;;14.12;50.22;101832.34;4901759;29;20229;-65
2024/01/25 13:27:57;;;;;;;16.77;4.00;;;;;;;14.11;50.70;101833.31;4904365;29;20234;-64
2024/01/25 13:30:26;;;;;;;18.43;4.03;;;;;;;14.12;51.06;101829.66;4902133;29;20213;-64
2024/01/25 13:32:54;;;;;;;20.67;4.67;;;;;;;14.15;51.25;101826.75;4899081;29;20763;-63
2024/01/25 13:35:23;;;;;;;23.60;4.50;;;;;;;14.18;51.72;101832.63;4901345;29;20217;-64
2024/01/25 13:37:51;;;;;;;22.93;4.90;;;;;;;14.17;51.31;101840.75;4901473;29;20259;-64
2024/01/25 13:40:21;;;;;;;17.77;4.63;;;;;;;14.20;51.50;101836.00;4902011;29;20237;-64
2024/01/25 13:42:50;;;;;;;20.23;4.83;;;;;;;14.23;51.77;101824.22;4902275;29;20221;-63
2024/01/25 13:45:21;;;;;;;21.37;4.57;;;;;;;14.23;52.32;101819.72;4900724;29;20799;-66
2024/01/25 13:47:52;;;;;;;22.80;4.90;;;;;;;14.18;51.99;101807.75;4900074;29;20576;-65
2024/01/25 13:50:21;;;;;;;26.30;5.00;;;;;;;13.99;52.78;101810.41;4899875;29;20213;-66
2024/01/25 13:52:49;;;;;;;22.20;5.77;;;;;;;13.79;53.35;101826.38;4902112;29;20236;-64
2024/01/25 13:55:18;;;;;;;24.53;5.17;;;;;;;13.73;53.90;101823.38;4899409;29;20215;-63
2024/01/25 13:57:48;;;;;;;25.27;5.37;;;;;;;13.56;54.20;101814.22;4900818;29;20212;-66
2024/01/25 14:00:17;;;;;;;20.33;4.80;;;;;;;13.43;54.39;101817.13;4900935;29;20230;-65
2024/01/25 14:02:46;;;;;;;24.33;4.77;;;;;;;13.36;55.37;101831.13;4901336;29;20224;-65
2024/01/25 14:05:15;;;;;;;28.20;5.53;;;;;;;13.35;55.58;101816.13;4900053;29;20221;-65
2024/01/25 14:07:44;;;;;;;30.73;6.77;;;;;;;13.43;55.35;101814.47;4900106;29;20727;-65
2024/01/25 14:10:13;;;;;;;24.00;4.97;;;;;;;13.43;55.59;101822.47;4900034;29;20240;-65
2024/01/25 14:12:41;;;;;;;22.47;5.50;;;;;;;13.42;55.56;101819.94;4900706;29;20216;-65
2024/01/25 14:15:11;;;;;;;25.67;5.90;;;;;;;13.35;55.52;101826.78;4901661;29;20216;-64
2024/01/25 14:17:40;;;;;;;27.50;6.23;;;;;;;13.28;55.59;101822.97;4897738;29;20744;-64
2024/01/25 14:20:09;;;;;;;25.73;5.83;;;;;;;13.24;55.64;101810.88;4900128;29;20229;-64
2024/01/25 14:22:38;;;;;;;24.70;5.37;;;;;;;13.21;55.96;101813.78;4898148;29;20694;-64
2024/01/25 14:25:07;;;;;;;24.43;5.40;;;;;;;13.23;56.26;101825.16;4898671;29;20229;-64
2024/01/25 14:27:35;;;;;;;22.70;4.97;;;;;;;13.22;56.21;101826.13;4898242;29;20263;-65
2024/01/25 14:30:06;;;;;;;23.37;5.30;;;;;;;13.18;56.49;101823.75;4902269;29;20223;-65
2024/01/25 14:32:37;;;;;;;22.40;4.93;;;;;;;13.20;56.42;101818.28;4900986;29;20212;-64
2024/01/25 14:35:06;;;;;;;25.00;4.63;;;;;;;13.21;56.37;101806.63;4899665;29;20353;-64
2024/01/25 14:37:34;;;;;;;21.60;4.63;;;;;;;13.10;57.17;101801.38;4901738;29;20215;-66
2024/01/25 14:40:07;;;;;;;25.10;5.17;;;;;;;12.96;57.44;101799.03;4898556;29;20224;-65
2024/01/25 14:42:56;;;;;;;22.67;4.60;;;;;;;12.93;57.45;101802.81;4901683;29;20213;-65
2024/01/25 14:45:24;;;;;;;21.40;5.00;;;;;;;12.91;57.69;101802.13;4900555;29;20394;-63
2024/01/25 14:47:54;;;;;;;24.10;5.07;;;;;;;12.96;58.10;101799.91;4900418;29;20258;-64
2024/01/25 14:50:23;;;;;;;23.27;5.33;;;;;;;12.95;57.91;101808.84;4902955;29;20318;-64
2024/01/25 14:52:51;;;;;;;23.13;4.97;;;;;;;12.88;58.33;101791.72;4900053;29;20268;-64
2024/01/25 14:55:26;;;;;;;31.63;6.83;;;;;;;12.82;58.60;101798.41;4901885;29;20211;-65
2024/01/25 14:57:55;;;;;;;24.20;6.13;;;;;;;12.79;58.80;101811.13;4902132;29;20263;-65
2024/01/25 15:00:23;;;;;;;22.93;5.23;;;;;;;12.78;59.15;101807.63;4901678;29;20943;-64
2024/01/25 15:02:52;;;;;;;24.30;5.23;;;;;;;12.78;58.91;101809.44;4902060;29;20224;-65
2024/01/25 15:05:22;;;;;;;26.73;5.57;;;;;;;12.77;59.23;101813.91;4900603;29;20284;-66
2024/01/25 15:07:51;;;;;;;30.30;6.90;;;;;;;12.73;59.05;101811.66;4903573;29;20237;-64
2024/01/25 15:10:19;;;;;;;24.77;5.47;;;;;;;12.68;59.37;101800.53;4898998;29;20221;-66
2024/01/25 15:12:48;;;;;;;28.30;6.07;;;;;;;12.65;59.50;101796.34;4900980;29;20206;-65
2024/01/25 15:15:17;;;;;;;23.20;5.57;;;;;;;12.63;59.61;101802.75;4899084;29;20314;-65
2024/01/25 15:17:46;;;;;;;30.43;5.23;;;;;;;12.59;59.76;101793.34;4896777;29;20213;-64
2024/01/25 15:20:15;;;;;;;23.27;5.10;;;;;;;12.55;60.18;101789.25;4900302;29;20217;-64
2024/01/25 15:22:45;;;;;;;20.93;5.37;;;;;;;12.52;60.21;101782.38;4899004;29;20211;-65
2024/01/25 15:25:14;;;;;;;19.10;5.07;;;;;;;12.54;60.37;101769.78;4898988;29;20285;-67
2024/01/25 15:27:43;;;;;;;25.40;5.53;;;;;;;12.60;60.31;101763.94;4899779;29;20249;-65
2024/01/25 15:30:12;;;;;;;25.70;5.27;;;;;;;12.58;60.30;101754.38;4899284;29;20223;-65
2024/01/25 15:32:42;;;;;;;18.13;4.73;;;;;;;12.59;60.74;101764.91;4901051;29;20217;-64
2024/01/25 15:35:11;;;;;;;30.40;5.97;;;;;;;12.59;60.83;101764.06;4897776;29;20306;-65
2024/01/25 15:37:41;;;;;;;27.70;5.53;;;;;;;12.56;60.71;101751.88;4902247;29;20275;-64
2024/01/25 15:40:13;;;;;;;26.43;6.40;;;;;;;12.51;60.88;101750.56;4899868;29;20217;-64
2024/01/25 15:42:44;;;;;;;27.50;6.43;;;;;;;12.46;60.72;101747.47;4901417;29;20618;-63
2024/01/25 15:45:13;;;;;;;27.23;5.97;;;;;;;12.42;60.64;101736.22;4899118;29;20216;-64
2024/01/25 15:47:43;;;;;;;25.90;5.63;;;;;;;12.39;60.84;101742.66;4899624;29;20294;-66
2024/01/25 15:50:13;;;;;;;25.13;5.90;;;;;;;12.33;61.00;101737.84;4900399;29;20285;-63
2024/01/25 15:52:42;;;;;;;28.70;6.23;;;;;;;12.31;60.93;101745.09;4896478;29;20225;-64
2024/01/25 15:55:11;;;;;;;26.63;5.43;;;;;;;12.30;60.90;101743.44;4897842;29;20222;-65
2024/01/25 15:57:40;;;;;;;28.93;6.33;;;;;;;12.28;61.23;101745.38;4901148;29;20215;-64
2024/01/25 16:00:09;;;;;;;19.20;5.00;;;;;;;12.31;61.02;101747.75;4899521;29;20322;-64
2024/01/25 16:02:38;;;;;;;28.57;5.57;;;;;;;12.32;61.24;101745.94;4898535;29;20224;-65
2024/01/25 16:05:07;;;;;;;31.97;6.23;;;;;;;12.32;61.02;101733.50;4896361;29;20222;-64
2024/01/25 16:07:38;;;;;;;25.37;5.33;;;;;;;12.33;61.26;101731.69;4896776;29;20242;-64
2024/01/25 16:10:18;;;;;;;32.53;5.60;;;;;;;12.35;61.23;101733.25;4899079;29;20236;-66
2024/01/25 16:12:49;;;;;;;30.13;6.57;;;;;;;12.30;61.53;101726.63;4898778;29;20574;-64
2024/01/25 16:15:19;;;;;;;38.70;7.93;;;;;;;12.26;61.92;101726.03;4896372;29;20269;-65
2024/01/25 16:17:48;;;;;;;30.83;9.93;;;;;;;12.23;62.07;101726.28;4898240;29;20219;-66
2024/01/25 16:20:17;;;;;;;25.83;8.20;;;;;;;12.21;62.08;101728.25;4899922;29;20228;-64
2024/01/25 16:22:46;;;;;;;32.83;6.40;;;;;;;12.24;62.15;101722.66;4901821;29;20617;-65
2024/01/25 16:25:14;;;;;;;32.30;7.37;;;;;;;12.30;62.11;101730.13;4892536;29;20236;-64
2024/01/25 16:33:01;;;;;;;18.50;6.40;;;;;;;12.37;61.71;101733.13;5283228;23;20537;-65
2024/01/25 16:35:30;;;;;;;22.63;6.30;;;;;;;12.36;61.89;101737.59;4913867;29;20219;-65
2024/01/25 16:37:59;;;;;;;30.13;6.90;;;;;;;12.35;62.08;101730.59;4916158;29;21450;-66
2024/01/25 16:40:28;;;;;;;30.87;7.30;;;;;;;12.35;62.16;101735.06;4917508;29;20247;-64
2024/01/25 16:42:56;;;;;;;23.07;6.03;;;;;;;12.38;62.15;101735.66;4915797;29;20216;-64
2024/01/25 16:45:28;;;;;;;24.50;5.57;;;;;;;12.35;62.29;101730.59;4914936;29;20491;-64
2024/01/25 16:47:57;;;;;;;26.77;6.10;;;;;;;12.30;62.96;101732.81;4919454;29;20239;-68
2024/01/25 16:50:27;;;;;;;22.30;5.40;;;;;;;12.28;62.77;101732.06;4922182;29;20251;-63
2024/01/25 16:52:56;;;;;;;22.03;5.70;;;;;;;12.29;63.08;101730.25;4921486;29;20268;-65
2024/01/25 16:55:25;;;;;;;25.50;6.50;;;;;;;12.29;62.84;101728.44;4923273;29;20873;-64
2024/01/25 16:57:53;;;;;;;25.17;6.30;;;;;;;12.29;63.10;101727.59;4917493;29;20216;-64
2024/01/25 17:00:22;;;;;;;37.23;7.10;;;;;;;12.22;63.53;101724.63;4920999;29;20213;-66
2024/01/25 17:02:53;;;;;;;21.70;6.17;;;;;;;12.23;63.64;101730.75;4920864;29;20725;-64
2024/01/25 17:05:21;;;;;;;18.97;5.77;;;;;;;12.28;63.48;101724.09;4921347;29;20825;-65
2024/01/25 17:07:52;;;;;;;28.90;6.03;;;;;;;12.35;63.51;101725.25;4922949;29;20223;-64
2024/01/25 17:10:20;;;;;;;24.60;6.93;;;;;;;12.39;63.54;101731.19;4920094;29;21182;-64
2024/01/25 17:12:48;;;;;;;22.13;5.77;;;;;;;12.40;63.54;101739.00;4919219;29;20220;-65
2024/01/25 17:15:17;;;;;;;23.53;5.77;;;;;;;12.41;63.82;101734.53;4917386;29;20311;-65
2024/01/25 17:17:46;;;;;;;25.37;5.83;;;;;;;12.42;64.36;101734.41;4920693;29;21027;-64
2024/01/25 17:20:16;;;;;;;23.47;6.10;;;;;;;12.41;64.86;101732.72;4921654;29;20220;-64
2024/01/25 17:22:44;;;;;;;23.30;5.27;;;;;;;12.43;64.96;101741.41;4918844;29;20219;-63
2024/01/25 17:25:15;;;;;;;20.03;4.37;;;;;;;12.42;65.29;101737.06;4910655;29;20595;-66
2024/01/25 19:25:11;;;;;;;18.23;5.17;;;;;;;11.15;83.68;101715.69;4860675;29;20232;-76
2024/01/25 19:27:39;;;;;;;20.30;7.27;;;;;;;11.16;84.14;101720.03;4869168;29;20273;-75
2024/01/25 19:30:08;;;;;;;16.87;6.90;;;;;;;11.20;84.63;101716.16;4869967;29;20282;-74
2024/01/25 19:32:35;;;;;;;17.97;6.73;;;;;;;11.23;84.47;101707.97;4872987;29;20236;-75
2024/01/25 19:35:05;;;;;;;20.90;6.10;;;;;;;11.29;83.72;101705.66;4889196;29;20670;-76
2024/01/25 19:37:33;;;;;;;21.57;6.33;;;;;;;11.32;83.57;101693.94;4888790;29;20249;-77
2024/01/25 19:40:01;;;;;;;18.67;6.97;;;;;;;11.23;84.11;101697.34;4889268;29;20682;-79
2024/01/25 19:42:30;;;;;;;15.13;5.57;;;;;;;11.19;85.15;101707.34;4888483;29;21696;-81
2024/01/25 19:44:58;;;;;;;21.33;5.70;;;;;;;11.19;84.95;101714.47;4886656;29;20210;-75
2024/01/25 19:47:26;;;;;;;21.83;5.83;;;;;;;11.21;85.15;101712.53;4884849;29;20300;-76
2024/01/25 19:49:55;;;;;;;17.97;6.13;;;;;;;11.16;86.09;101712.06;4888917;29;20320;-75
2024/01/25 19:52:23;;;;;;;18.30;5.77;;;;;;;11.12;86.40;101716.78;4886393;29;20700;-75
2024/01/25 19:54:51;;;;;;;18.97;6.37;;;;;;;11.15;86.68;101715.69;4883542;29;20567;-74
2024/01/25 19:57:21;;;;;;;18.30;6.10;;;;;;;11.12;87.21;101716.78;4889676;29;20222;-75
2024/01/25 19:59:50;;;;;;;15.00;5.83;;;;;;;11.10;88.18;101717.84;4884903;29;20280;-74
2024/01/25 20:02:19;;;;;;;14.27;4.80;;;;;;;11.14;88.09;101721.97;4886132;29;20370;-73
2024/01/25 20:04:47;;;;;;;12.57;5.37;;;;;;;11.12;88.77;101718.59;4887881;29;20212;-72
2024/01/25 20:07:16;;;;;;;17.00;5.13;;;;;;;11.06;90.51;101714.63;4879393;29;20311;-77
2024/01/25 20:09:44;;;;;;;14.67;4.47;;;;;;;11.13;89.47;101722.94;4891370;29;20252;-75
2024/01/25 20:12:11;;;;;;;13.40;5.47;;;;;;;11.16;89.60;101728.00;4886758;29;20671;-77
2024/01/25 20:14:40;;;;;;;16.03;4.97;;;;;;;11.20;89.85;101724.97;4882765;29;20654;-74
2024/01/25 20:17:10;;;;;;;15.03;4.87;;;;;;;11.27;88.90;101726.16;4886047;29;20648;-74
2024/01/25 20:19:37;;;;;;;15.27;5.13;;;;;;;11.32;89.02;101736.44;4885830;29;20257;-74
2024/01/25 20:22:05;;;;;;;16.50;5.73;;;;;;;11.25;90.03;101732.59;4883575;29;20289;-77
2024/01/25 20:24:33;;;;;;;16.70;6.20;;;;;;;11.15;90.91;101734.28;4906216;29;20695;-76
2024/01/25 20:27:01;;;;;;;12.13;6.53;;;;;;;11.10;91.32;101728.47;4905874;29;20211;-77
2024/01/25 20:29:29;;;;;;;14.83;6.00;;;;;;;11.15;91.04;101734.28;4907594;29;20695;-80
2024/01/25 20:31:58;;;;;;;12.83;5.50;;;;;;;11.16;90.99;101735.97;4904374;29;20239;-79
2024/01/25 20:34:27;;;;;;;15.97;5.73;;;;;;;11.16;91.27;101730.66;4905400;29;20228;-75